Time;durP1;ratioP1;P1;durP2;ratioP2;P2;SDS_P1;SDS_P2;PMS_P1;PMS_P2;Temp;Humidity;BMP_temperature;BMP_pressure;BME280_temperature;BME280_humidity;BME280_pressure;Samples;Min_cycle;Max_cycle;Signal;HPM_P1;HPM_P2
2022/09/11 00:01:52;;;;;;;7.47;6.77;;;16.50;99.90;;;;;;6248416;23;20494;-68
2022/09/11 00:04:19;;;;;;;7.50;6.40;;;16.50;99.90;;;;;;6248094;23;20466;-69
2022/09/11 00:06:46;;;;;;;7.27;6.57;;;16.40;99.90;;;;;;6247718;23;20893;-68
2022/09/11 00:09:13;;;;;;;8.63;7.57;;;16.40;99.90;;;;;;6247840;23;20434;-68
2022/09/11 00:11:42;;;;;;;7.07;6.47;;;16.40;99.90;;;;;;6252708;23;20438;-70
2022/09/11 00:14:11;;;;;;;7.87;6.70;;;16.40;99.90;;;;;;6257670;23;20506;-70
2022/09/11 00:16:40;;;;;;;7.70;6.90;;;16.40;99.90;;;;;;6257347;23;20438;-70
2022/09/11 00:19:08;;;;;;;7.67;6.87;;;16.40;99.90;;;;;;6258339;23;20410;-70
2022/09/11 00:21:35;;;;;;;7.90;7.20;;;16.40;99.90;;;;;;6258169;23;20446;-70
2022/09/11 00:24:03;;;;;;;7.77;6.67;;;16.40;99.90;;;;;;6258437;23;20411;-69
2022/09/11 00:26:30;;;;;;;7.23;6.53;;;16.30;99.90;;;;;;6257033;23;20466;-69
2022/09/11 00:29:00;;;;;;;10.00;7.43;;;16.30;99.90;;;;;;6257253;23;20963;-70
2022/09/11 00:31:28;;;;;;;9.70;7.93;;;16.30;99.90;;;;;;6257856;23;20399;-69
2022/09/11 00:33:57;;;;;;;8.20;7.40;;;16.30;99.90;;;;;;6254394;23;20430;-70
2022/09/11 00:36:26;;;;;;;8.17;7.40;;;16.20;99.90;;;;;;6249419;23;20718;-69
2022/09/11 00:38:53;;;;;;;8.53;7.73;;;16.20;99.90;;;;;;6247901;23;20450;-69
2022/09/11 00:41:24;;;;;;;8.77;7.53;;;16.20;99.90;;;;;;6247908;23;20708;-69
2022/09/11 00:44:02;;;;;;;8.57;7.77;;;16.10;99.90;;;;;;6247972;23;20399;-70
2022/09/11 00:46:39;;;;;;;10.03;8.33;;;16.10;99.90;;;;;;6248386;23;20459;-69
2022/09/11 00:49:16;;;;;;;10.90;8.13;;;16.10;99.90;;;;;;6249637;23;20786;-70
2022/09/11 00:51:44;;;;;;;8.60;7.57;;;16.10;99.90;;;;;;6248782;23;20426;-70
2022/09/11 00:54:14;;;;;;;8.33;7.53;;;16.10;99.90;;;;;;6249339;23;20494;-70
2022/09/11 00:56:42;;;;;;;7.50;6.80;;;16.10;99.90;;;;;;6250384;23;20411;-70
2022/09/11 00:59:12;;;;;;;7.67;6.90;;;16.00;99.90;;;;;;6252589;23;20493;-70
2022/09/11 01:01:39;;;;;;;8.63;6.80;;;16.00;99.90;;;;;;6252205;23;20406;-69
2022/09/11 01:04:07;;;;;;;9.13;7.13;;;16.00;99.90;;;;;;6255017;23;20534;-69
2022/09/11 01:06:34;;;;;;;9.13;6.73;;;16.00;99.90;;;;;;6254021;23;20415;-70
2022/09/11 01:09:01;;;;;;;7.83;7.13;;;16.10;99.90;;;;;;6253532;23;20470;-70
2022/09/11 01:11:41;;;;;;;8.50;6.73;;;16.10;99.90;;;;;;6252352;23;20775;-69
2022/09/11 01:14:29;;;;;;;7.83;7.03;;;16.10;99.90;;;;;;6249210;23;20477;-69
2022/09/11 01:17:07;;;;;;;7.23;6.33;;;16.10;99.90;;;;;;6249546;23;20478;-69
2022/09/11 01:19:51;;;;;;;7.03;6.33;;;16.10;99.90;;;;;;6256283;23;20403;-70
2022/09/11 01:22:40;;;;;;;7.50;6.63;;;16.10;99.90;;;;;;6258635;23;20406;-70
2022/09/11 01:25:20;;;;;;;9.10;7.10;;;16.10;99.90;;;;;;6251986;23;20502;-70
2022/09/11 01:27:50;;;;;;;8.90;7.27;;;16.10;99.90;;;;;;6255929;23;20434;-70
2022/09/11 01:30:19;;;;;;;7.60;6.77;;;16.10;99.90;;;;;;6257664;23;20732;-70
2022/09/11 01:33:11;;;;;;;6.93;6.23;;;16.10;99.90;;;;;;6259240;23;20483;-70
2022/09/11 01:35:44;;;;;;;8.50;6.50;;;16.10;99.90;;;;;;6258994;23;20418;-70
2022/09/11 01:38:17;;;;;;;8.10;6.60;;;16.00;99.90;;;;;;6258417;23;20466;-70
2022/09/11 01:40:51;;;;;;;7.93;7.00;;;15.90;99.90;;;;;;6257409;23;20431;-70
2022/09/11 01:43:25;;;;;;;7.27;6.07;;;15.90;99.90;;;;;;6257203;23;20399;-70
2022/09/11 01:45:54;;;;;;;6.90;6.10;;;15.90;99.90;;;;;;6259143;23;20405;-70
2022/09/11 01:48:25;;;;;;;7.73;7.00;;;15.80;99.90;;;;;;6258480;23;20415;-70
2022/09/11 01:50:54;;;;;;;8.43;6.50;;;15.80;99.90;;;;;;6256787;23;20409;-70
2022/09/11 01:53:27;;;;;;;8.67;6.37;;;15.70;99.90;;;;;;6253116;23;20437;-71
2022/09/11 01:56:01;;;;;;;7.23;6.40;;;15.70;99.90;;;;;;6257339;23;20396;-70
2022/09/11 01:58:31;;;;;;;7.20;6.60;;;15.70;99.90;;;;;;6256046;23;20465;-70
2022/09/11 02:01:03;;;;;;;7.00;6.33;;;15.60;99.90;;;;;;6254144;23;20443;-68
2022/09/11 02:03:37;;;;;;;7.30;6.53;;;15.60;99.90;;;;;;6250276;23;20436;-68
2022/09/11 02:06:07;;;;;;;7.23;6.53;;;15.60;99.90;;;;;;6248932;23;20406;-69
2022/09/11 02:08:40;;;;;;;7.70;7.00;;;15.60;99.90;;;;;;6248076;23;20499;-69
2022/09/11 02:11:10;;;;;;;6.67;6.07;;;15.60;99.90;;;;;;6249094;23;20689;-69
2022/09/11 02:13:46;;;;;;;7.30;6.17;;;15.60;99.90;;;;;;6248584;23;20957;-69
2022/09/11 02:16:20;;;;;;;7.80;6.57;;;15.50;99.90;;;;;;6249891;23;20410;-69
2022/09/11 02:18:56;;;;;;;6.70;5.93;;;15.50;99.90;;;;;;6258743;23;20406;-70
2022/09/11 02:21:23;;;;;;;7.80;6.30;;;15.50;99.90;;;;;;6258192;23;20746;-70
2022/09/11 02:23:50;;;;;;;7.30;5.70;;;15.40;99.90;;;;;;6257290;23;20446;-70
2022/09/11 02:26:20;;;;;;;7.03;6.30;;;15.40;99.90;;;;;;6255376;23;20518;-70
2022/09/11 02:28:48;;;;;;;10.33;6.67;;;15.40;99.90;;;;;;6253430;23;20929;-70
2022/09/11 02:31:18;;;;;;;6.67;6.07;;;15.40;99.90;;;;;;6256072;23;20415;-70
2022/09/11 02:34:03;;;;;;;6.93;6.27;;;15.30;99.90;;;;;;6257915;23;20449;-70
2022/09/11 02:36:54;;;;;;;7.43;6.63;;;15.30;99.90;;;;;;6258319;23;20478;-70
2022/09/11 02:39:41;;;;;;;7.40;6.63;;;15.30;99.90;;;;;;6257615;23;20443;-70
2022/09/11 02:42:20;;;;;;;6.00;5.47;;;15.20;99.90;;;;;;6256890;23;20433;-70
2022/09/11 02:44:57;;;;;;;7.23;6.17;;;15.20;99.90;;;;;;6256607;23;20438;-69
2022/09/11 02:47:35;;;;;;;7.03;6.33;;;15.20;99.90;;;;;;6257808;23;20434;-70
2022/09/11 02:50:10;;;;;;;7.60;6.37;;;15.20;99.90;;;;;;6249612;23;20502;-70
2022/09/11 02:52:48;;;;;;;7.77;6.20;;;15.20;99.90;;;;;;6248390;23;20470;-70
2022/09/11 02:55:24;;;;;;;8.40;6.30;;;15.20;99.90;;;;;;6248966;23;20418;-70
2022/09/11 02:57:58;;;;;;;6.63;5.93;;;15.20;99.90;;;;;;6248503;23;20930;-70
2022/09/11 03:00:27;;;;;;;8.47;7.63;;;15.20;99.90;;;;;;6256091;23;20435;-70
2022/09/11 03:02:53;;;;;;;9.67;8.00;;;15.20;99.90;;;;;;6248906;23;20415;-70
2022/09/11 03:05:21;;;;;;;9.80;8.30;;;15.30;99.90;;;;;;6249138;23;20415;-70
2022/09/11 03:07:48;;;;;;;9.30;8.40;;;15.30;99.90;;;;;;6248675;23;20414;-70
2022/09/11 03:10:15;;;;;;;9.83;7.30;;;15.30;99.90;;;;;;6248854;23;20434;-70
2022/09/11 03:12:41;;;;;;;9.10;8.10;;;15.30;99.90;;;;;;6248118;23;20502;-70
2022/09/11 03:15:10;;;;;;;10.67;8.80;;;15.30;99.90;;;;;;6248584;23;20419;-70
2022/09/11 03:17:39;;;;;;;10.83;8.23;;;15.30;99.90;;;;;;6248203;23;20722;-69
2022/09/11 03:20:07;;;;;;;9.80;8.40;;;15.30;99.90;;;;;;6248185;23;20411;-69
2022/09/11 03:22:33;;;;;;;22.20;13.43;;;15.30;99.90;;;;;;6248817;23;20447;-70
2022/09/11 03:25:00;;;;;;;28.30;15.93;;;15.30;99.90;;;;;;6248964;23;20457;-68
2022/09/11 03:27:27;;;;;;;46.83;22.07;;;15.30;99.90;;;;;;6249409;23;20719;-70
2022/09/11 03:29:55;;;;;;;23.17;13.63;;;15.30;99.90;;;;;;6248961;23;20434;-69
2022/09/11 03:32:22;;;;;;;14.90;11.40;;;15.20;99.90;;;;;;6248333;23;20414;-68
2022/09/11 03:34:50;;;;;;;14.63;10.40;;;15.20;99.90;;;;;;6248322;23;20536;-69
2022/09/11 03:37:17;;;;;;;14.90;10.70;;;15.20;99.90;;;;;;6248060;23;20698;-68
2022/09/11 03:39:44;;;;;;;12.63;10.10;;;15.20;99.90;;;;;;6247626;23;20529;-68
2022/09/11 03:42:12;;;;;;;15.50;12.17;;;15.20;99.90;;;;;;6247927;23;20415;-68
2022/09/11 03:44:39;;;;;;;13.60;11.80;;;15.10;99.90;;;;;;6247535;23;20469;-68
2022/09/11 03:47:07;;;;;;;12.63;11.27;;;15.10;99.90;;;;;;6248088;23;20713;-68
2022/09/11 03:49:34;;;;;;;11.97;10.70;;;15.00;99.90;;;;;;6248043;23;20545;-68
2022/09/11 03:52:03;;;;;;;13.90;11.80;;;15.00;99.90;;;;;;6248322;23;20490;-68
2022/09/11 03:54:30;;;;;;;13.27;11.83;;;15.00;99.90;;;;;;6248290;23;20415;-68
2022/09/11 03:57:00;;;;;;;13.17;10.57;;;15.00;99.90;;;;;;6248137;23;20415;-69
2022/09/11 03:59:27;;;;;;;17.13;12.33;;;15.00;99.90;;;;;;6248034;23;20410;-68
2022/09/11 04:01:54;;;;;;;13.60;11.40;;;15.00;99.90;;;;;;6248070;23;20419;-69
2022/09/11 04:04:21;;;;;;;13.80;11.17;;;14.90;99.90;;;;;;6247736;23;20465;-68
2022/09/11 04:06:48;;;;;;;14.00;10.90;;;14.90;99.90;;;;;;6247873;23;20455;-68
2022/09/11 04:09:17;;;;;;;12.83;10.90;;;14.90;99.90;;;;;;6247452;23;20961;-68
2022/09/11 04:11:44;;;;;;;13.60;10.37;;;14.90;99.90;;;;;;6247428;23;20458;-68
2022/09/11 04:14:11;;;;;;;11.43;9.83;;;14.90;99.90;;;;;;6247948;23;20503;-69
2022/09/11 04:16:38;;;;;;;13.73;10.67;;;14.90;99.90;;;;;;6247820;23;20414;-69
2022/09/11 04:19:05;;;;;;;13.67;10.43;;;14.90;99.90;;;;;;6247457;23;20493;-68
2022/09/11 04:21:33;;;;;;;15.33;11.30;;;14.90;99.90;;;;;;6247571;23;20497;-68
2022/09/11 04:24:00;;;;;;;15.53;10.73;;;14.90;99.90;;;;;;6247870;23;20418;-68
2022/09/11 04:26:31;;;;;;;13.83;11.03;;;14.90;99.90;;;;;;6248620;23;20423;-69
2022/09/11 04:28:59;;;;;;;14.77;11.60;;;14.90;99.90;;;;;;6251149;23;20478;-69
2022/09/11 04:31:26;;;;;;;13.87;10.77;;;14.90;99.90;;;;;;6247910;23;20984;-69
2022/09/11 04:33:54;;;;;;;16.73;12.27;;;14.90;99.90;;;;;;6247857;23;20426;-69
2022/09/11 04:36:23;;;;;;;17.20;12.03;;;14.90;99.90;;;;;;6248388;23;20422;-69
2022/09/11 04:38:55;;;;;;;20.33;12.17;;;14.90;99.90;;;;;;6251997;23;20443;-69
2022/09/11 04:41:22;;;;;;;15.07;11.00;;;14.90;99.90;;;;;;6251368;23;20423;-69
2022/09/11 04:43:54;;;;;;;17.70;12.33;;;14.90;99.90;;;;;;6249749;23;20447;-69
2022/09/11 04:46:21;;;;;;;18.10;11.67;;;15.00;99.90;;;;;;6249138;23;20464;-69
2022/09/11 04:48:50;;;;;;;23.23;13.50;;;15.00;99.90;;;;;;6247624;23;20775;-70
2022/09/11 04:51:21;;;;;;;20.50;12.90;;;15.00;99.90;;;;;;6247774;23;20797;-70
2022/09/11 04:53:48;;;;;;;18.00;12.50;;;15.00;99.90;;;;;;6247742;23;20411;-70
2022/09/11 04:56:16;;;;;;;20.30;13.30;;;15.00;99.90;;;;;;6248148;23;20498;-70
2022/09/11 04:58:43;;;;;;;18.80;13.07;;;15.10;99.90;;;;;;6247991;23;20491;-70
2022/09/11 05:01:13;;;;;;;23.00;13.60;;;15.10;99.90;;;;;;6247288;23;20446;-69
2022/09/11 05:03:41;;;;;;;18.50;12.10;;;15.10;99.90;;;;;;6247244;23;20507;-69
2022/09/11 05:06:09;;;;;;;20.40;13.00;;;15.10;99.90;;;;;;6247484;23;20452;-69
2022/09/11 05:08:36;;;;;;;17.10;12.10;;;15.20;99.90;;;;;;6247563;23;20443;-69
2022/09/11 05:11:04;;;;;;;18.90;13.47;;;15.10;99.90;;;;;;6247963;23;20809;-70
2022/09/11 05:13:32;;;;;;;17.90;12.40;;;15.20;99.90;;;;;;6247982;23;20488;-71
2022/09/11 05:16:02;;;;;;;22.53;14.10;;;15.30;99.90;;;;;;6247702;23;20732;-70
2022/09/11 05:18:30;;;;;;;23.20;13.47;;;15.30;99.90;;;;;;6247836;23;20701;-70
2022/09/11 05:21:00;;;;;;;17.13;12.40;;;15.40;99.90;;;;;;6244522;23;20447;-70
2022/09/11 05:23:28;;;;;;;17.30;12.47;;;15.50;99.90;;;;;;6245425;23;20710;-70
2022/09/11 05:25:58;;;;;;;22.03;14.60;;;15.50;99.90;;;;;;6248037;23;20430;-70
2022/09/11 05:28:26;;;;;;;18.37;14.30;;;15.60;99.90;;;;;;6248326;23;20429;-70
2022/09/11 05:30:53;;;;;;;20.83;15.23;;;15.60;99.90;;;;;;6247822;23;20439;-70
2022/09/11 05:33:30;;;;;;;20.17;15.27;;;15.60;99.90;;;;;;6248462;23;20441;-70
2022/09/11 05:36:04;;;;;;;20.17;15.30;;;15.60;99.90;;;;;;6247715;23;20490;-70
2022/09/11 05:38:31;;;;;;;21.10;15.13;;;15.60;99.90;;;;;;6247408;23;20517;-70
2022/09/11 05:40:58;;;;;;;23.40;15.33;;;15.70;99.90;;;;;;6247916;23;20817;-70
2022/09/11 05:43:25;;;;;;;21.57;14.50;;;15.70;99.90;;;;;;6249109;23;20436;-70
2022/09/11 05:45:55;;;;;;;22.00;15.30;;;15.70;99.90;;;;;;6250520;23;20838;-70
2022/09/11 05:48:22;;;;;;;25.57;16.47;;;15.70;99.90;;;;;;6250691;23;20442;-70
2022/09/11 05:50:54;;;;;;;25.83;16.03;;;15.70;99.90;;;;;;6252814;23;20525;-69
2022/09/11 05:53:21;;;;;;;25.30;16.37;;;15.70;99.90;;;;;;6252653;23;20481;-69
2022/09/11 05:55:48;;;;;;;29.30;17.60;;;15.70;99.90;;;;;;6250118;23;20498;-70
2022/09/11 05:58:16;;;;;;;25.90;17.40;;;15.70;99.90;;;;;;6250694;23;20497;-69
2022/09/11 06:00:45;;;;;;;25.40;16.70;;;15.70;99.90;;;;;;6251530;23;20421;-70
2022/09/11 06:03:12;;;;;;;26.13;17.27;;;15.60;99.90;;;;;;6250875;23;20704;-70
2022/09/11 06:05:39;;;;;;;29.17;18.43;;;15.60;99.90;;;;;;6252947;23;20726;-70
2022/09/11 06:08:07;;;;;;;24.00;17.40;;;15.70;99.90;;;;;;6250174;23;20524;-71
2022/09/11 06:10:34;;;;;;;24.83;17.40;;;15.70;99.90;;;;;;6250216;23;20935;-69
2022/09/11 06:13:01;;;;;;;27.63;18.10;;;15.80;99.90;;;;;;6249064;23;20495;-69
2022/09/11 06:15:29;;;;;;;24.60;16.80;;;15.80;99.90;;;;;;6249044;23;20466;-70
2022/09/11 06:17:56;;;;;;;27.30;17.47;;;15.90;99.90;;;;;;6249162;23;20415;-69
2022/09/11 06:20:22;;;;;;;25.17;16.77;;;16.00;99.90;;;;;;6249113;23;20453;-69
2022/09/11 06:22:49;;;;;;;24.20;16.97;;;16.10;99.90;;;;;;6249825;23;20490;-69
2022/09/11 06:25:18;;;;;;;27.17;17.20;;;16.20;99.90;;;;;;6249142;23;20714;-70
2022/09/11 06:27:44;;;;;;;22.73;15.50;;;16.30;99.90;;;;;;6248745;23;20494;-70
2022/09/11 06:30:12;;;;;;;20.70;15.73;;;16.40;99.90;;;;;;6250319;23;20525;-70
2022/09/11 06:32:40;;;;;;;23.07;16.30;;;16.40;99.90;;;;;;6254198;23;20479;-69
2022/09/11 06:35:07;;;;;;;21.50;15.90;;;16.50;99.90;;;;;;6252145;23;20411;-70
2022/09/11 06:37:35;;;;;;;24.53;15.57;;;16.50;99.90;;;;;;6252135;23;20578;-69
2022/09/11 06:40:02;;;;;;;19.50;15.07;;;16.50;99.90;;;;;;6248611;23;20707;-69
2022/09/11 06:42:32;;;;;;;21.90;15.40;;;16.50;99.90;;;;;;6249351;23;20450;-70
2022/09/11 06:44:58;;;;;;;23.60;16.63;;;16.50;99.90;;;;;;6250626;23;20414;-70
2022/09/11 06:47:26;;;;;;;22.70;16.50;;;16.60;99.90;;;;;;6251697;23;20878;-70
2022/09/11 06:49:53;;;;;;;19.90;14.93;;;16.60;99.90;;;;;;6250651;23;20477;-70
2022/09/11 06:52:20;;;;;;;17.90;14.67;;;16.60;99.90;;;;;;6253610;23;20730;-70
2022/09/11 06:54:46;;;;;;;21.57;15.97;;;16.60;99.90;;;;;;6250522;23;20494;-71
2022/09/11 06:57:13;;;;;;;20.70;15.30;;;16.70;99.90;;;;;;6253064;23;20499;-69
2022/09/11 06:59:42;;;;;;;21.07;16.00;;;16.60;99.90;;;;;;6253725;23;20415;-69
2022/09/11 07:02:09;;;;;;;17.50;13.27;;;16.70;99.90;;;;;;6249655;23;20517;-69
2022/09/11 07:04:36;;;;;;;20.67;15.20;;;16.70;99.90;;;;;;6250312;23;20442;-69
2022/09/11 07:07:04;;;;;;;22.47;15.27;;;16.70;99.90;;;;;;6253020;23;20478;-70
2022/09/11 07:09:30;;;;;;;19.17;14.10;;;16.70;99.90;;;;;;6252342;23;20743;-69
2022/09/11 07:11:58;;;;;;;21.67;14.97;;;16.70;99.90;;;;;;6249775;23;20449;-69
2022/09/11 07:14:25;;;;;;;17.47;13.70;;;16.80;99.90;;;;;;6249627;23;20497;-69
2022/09/11 07:16:54;;;;;;;21.83;13.27;;;16.80;99.90;;;;;;6250506;23;20768;-69
2022/09/11 07:19:23;;;;;;;16.53;12.83;;;16.80;99.90;;;;;;6251790;23;20443;-70
2022/09/11 07:21:50;;;;;;;18.80;14.30;;;16.90;99.90;;;;;;6253577;23;20410;-70
2022/09/11 07:24:17;;;;;;;19.17;13.27;;;16.90;99.90;;;;;;6248847;23;20505;-69
2022/09/11 07:26:44;;;;;;;16.00;13.97;;;17.00;99.90;;;;;;6251793;23;20439;-70
2022/09/11 07:29:12;;;;;;;17.20;13.63;;;17.00;99.90;;;;;;6257410;23;20449;-70
2022/09/11 07:31:41;;;;;;;19.00;14.13;;;17.00;99.90;;;;;;6259000;23;20518;-70
2022/09/11 07:34:10;;;;;;;16.50;13.10;;;17.10;99.90;;;;;;6255279;23;20415;-70
2022/09/11 07:36:37;;;;;;;17.33;13.20;;;17.20;99.90;;;;;;6255889;23;20426;-70
2022/09/11 07:39:04;;;;;;;15.83;12.07;;;17.30;99.90;;;;;;6254712;23;20944;-70
2022/09/11 07:41:31;;;;;;;17.53;13.20;;;17.40;99.90;;;;;;6256728;23;20411;-70
2022/09/11 07:44:00;;;;;;;17.30;12.27;;;17.60;99.90;;;;;;6258373;23;20425;-69
2022/09/11 07:46:28;;;;;;;15.00;12.27;;;17.70;99.90;;;;;;6254678;23;20450;-70
2022/09/11 07:48:55;;;;;;;17.77;12.60;;;17.90;99.90;;;;;;6255457;23;20415;-70
2022/09/11 07:51:25;;;;;;;14.53;11.37;;;18.00;99.90;;;;;;6257044;23;20443;-70
2022/09/11 07:53:53;;;;;;;14.80;10.90;;;18.10;99.90;;;;;;6256078;23;20415;-69
2022/09/11 07:56:22;;;;;;;15.47;12.03;;;18.20;99.90;;;;;;6257171;23;20415;-69
2022/09/11 07:58:49;;;;;;;13.90;11.33;;;18.30;99.90;;;;;;6255512;23;20411;-70
2022/09/11 08:01:18;;;;;;;15.60;11.87;;;18.30;99.90;;;;;;6257374;23;20411;-70
2022/09/11 08:03:46;;;;;;;16.20;12.50;;;18.40;99.90;;;;;;6257274;23;20913;-70
2022/09/11 08:06:14;;;;;;;18.27;12.03;;;18.40;99.90;;;;;;6251966;23;20503;-69
2022/09/11 08:08:43;;;;;;;13.40;11.30;;;18.40;99.90;;;;;;6251895;23;20426;-68
2022/09/11 08:11:17;;;;;;;15.10;11.53;;;18.40;99.90;;;;;;6247865;23;20518;-69
2022/09/11 08:13:49;;;;;;;14.40;11.03;;;18.40;99.90;;;;;;6250199;23;20675;-69
2022/09/11 08:16:16;;;;;;;15.13;11.70;;;18.50;99.90;;;;;;6253644;23;20399;-70
2022/09/11 08:18:43;;;;;;;14.53;11.70;;;18.60;99.90;;;;;;6256829;23;20434;-69
2022/09/11 08:21:11;;;;;;;14.60;10.50;;;18.70;99.90;;;;;;6255871;23;20480;-69
2022/09/11 08:23:40;;;;;;;13.83;11.70;;;18.80;99.90;;;;;;6255850;23;20438;-70
2022/09/11 08:26:11;;;;;;;12.87;11.40;;;18.90;99.90;;;;;;6253202;23;20491;-70
2022/09/11 08:28:39;;;;;;;14.47;11.27;;;18.90;99.90;;;;;;6254565;23;20491;-69
2022/09/11 08:31:06;;;;;;;15.10;12.10;;;18.90;99.90;;;;;;6251493;23;20776;-68
2022/09/11 08:33:33;;;;;;;12.40;10.30;;;18.90;99.90;;;;;;6248296;23;20494;-68
2022/09/11 08:36:02;;;;;;;14.87;10.83;;;19.00;99.90;;;;;;6247703;23;20497;-69
2022/09/11 08:38:29;;;;;;;14.90;11.43;;;18.90;99.90;;;;;;6247910;23;20438;-70
2022/09/11 08:40:57;;;;;;;15.00;10.80;;;18.80;99.90;;;;;;6248533;23;20518;-70
2022/09/11 08:43:31;;;;;;;12.47;10.33;;;18.80;99.90;;;;;;6250553;23;20415;-70
2022/09/11 08:46:04;;;;;;;14.33;10.97;;;18.80;99.90;;;;;;6248553;23;20399;-69
2022/09/11 08:48:39;;;;;;;18.70;10.30;;;18.80;99.90;;;;;;6247727;23;20490;-69
2022/09/11 08:51:06;;;;;;;13.70;10.13;;;18.80;99.90;;;;;;6247602;23;20785;-69
2022/09/11 08:53:34;;;;;;;11.30;9.80;;;18.90;99.90;;;;;;6247066;23;20421;-70
2022/09/11 08:56:05;;;;;;;14.57;9.80;;;19.00;99.90;;;;;;6247986;23;20426;-69
2022/09/11 08:58:40;;;;;;;11.00;9.40;;;19.20;99.90;;;;;;6247081;23;20438;-69
2022/09/11 09:01:24;;;;;;;11.60;10.37;;;19.30;99.90;;;;;;6247531;23;20395;-69
2022/09/11 09:04:09;;;;;;;10.77;9.37;;;19.50;99.90;;;;;;6247998;23;20421;-70
2022/09/11 09:06:49;;;;;;;12.07;9.97;;;19.50;99.90;;;;;;6248225;23;20754;-70
2022/09/11 09:09:22;;;;;;;11.30;10.03;;;19.50;99.90;;;;;;6248114;23;20418;-70
2022/09/11 09:11:56;;;;;;;11.13;9.43;;;19.50;99.90;;;;;;6248410;23;20499;-70
2022/09/11 09:14:46;;;;;;;12.00;9.23;;;19.40;99.90;;;;;;6247913;23;20427;-70
2022/09/11 09:17:18;;;;;;;10.80;9.70;;;19.40;99.90;;;;;;6248064;23;20497;-70
2022/09/11 09:19:54;;;;;;;9.83;8.77;;;19.50;99.90;;;;;;6248939;23;20399;-69
2022/09/11 09:22:25;;;;;;;11.63;9.20;;;19.60;99.90;;;;;;6249306;23;20666;-69
2022/09/11 09:24:59;;;;;;;9.90;8.80;;;19.70;99.90;;;;;;6249179;23;20482;-69
2022/09/11 09:27:30;;;;;;;10.07;8.93;;;19.70;99.90;;;;;;6249444;23;20399;-69
2022/09/11 09:30:01;;;;;;;9.60;8.60;;;19.60;99.90;;;;;;6248991;23;20398;-69
2022/09/11 09:32:31;;;;;;;12.73;10.37;;;19.60;99.90;;;;;;6249361;23;20929;-69
2022/09/11 09:35:03;;;;;;;11.40;10.00;;;19.60;99.90;;;;;;6249181;23;20878;-69
2022/09/11 09:37:30;;;;;;;10.50;9.20;;;19.60;99.90;;;;;;6249034;23;20395;-70
2022/09/11 09:39:59;;;;;;;17.97;10.20;;;19.60;99.90;;;;;;6248903;23;20462;-69
2022/09/11 09:43:04;;;;;;;10.90;9.50;;;19.60;99.90;;;;;;6248815;23;20896;-69
2022/09/11 09:45:40;;;;;;;10.90;8.50;;;19.60;99.90;;;;;;6127492;23;20518;-70
2022/09/11 09:48:10;;;;;;;9.90;8.87;;;19.70;99.90;;;;;;6127824;23;20481;-69
2022/09/11 09:50:39;;;;;;;11.63;9.33;;;19.80;99.90;;;;;;6127677;23;20549;-69
2022/09/11 09:53:15;;;;;;;11.87;8.50;;;20.10;99.90;;;;;;6127515;23;20517;-69
2022/09/11 09:55:43;;;;;;;11.53;9.40;;;20.30;99.90;;;;;;6127057;23;20465;-70
2022/09/11 09:58:10;;;;;;;10.07;8.63;;;20.40;99.90;;;;;;6128536;23;20442;-70
2022/09/11 10:00:40;;;;;;;9.67;8.40;;;20.50;99.90;;;;;;6129200;23;20746;-71
2022/09/11 10:03:21;;;;;;;11.13;9.37;;;20.50;99.90;;;;;;6128813;23;20481;-70
2022/09/11 10:05:50;;;;;;;10.83;9.73;;;20.30;99.90;;;;;;6130615;23;20849;-71
2022/09/11 10:08:33;;;;;;;9.37;8.20;;;20.20;99.90;;;;;;6127920;23;20442;-72
2022/09/11 10:11:02;;;;;;;11.70;8.77;;;20.10;99.90;;;;;;6127572;23;20445;-71
2022/09/11 10:13:32;;;;;;;9.50;8.30;;;20.00;99.90;;;;;;6128303;23;20422;-71
2022/09/11 10:16:02;;;;;;;11.03;8.47;;;20.00;99.90;;;;;;6126868;23;20423;-71
2022/09/11 10:18:41;;;;;;;8.90;8.00;;;20.10;99.90;;;;;;6128620;23;20469;-71
2022/09/11 10:21:28;;;;;;;10.53;9.30;;;20.20;99.90;;;;;;6145971;23;20418;-71
2022/09/11 10:23:56;;;;;;;10.50;8.90;;;20.30;99.90;;;;;;6251615;23;20834;-71
2022/09/11 10:26:28;;;;;;;10.40;8.30;;;20.30;99.90;;;;;;6249151;23;20415;-70
2022/09/11 10:28:59;;;;;;;9.57;8.57;;;20.50;99.90;;;;;;6248684;23;20486;-71
2022/09/11 10:31:28;;;;;;;12.30;10.53;;;20.70;99.90;;;;;;6249661;23;20450;-69
2022/09/11 10:33:58;;;;;;;19.37;17.27;;;20.80;99.90;;;;;;6249083;23;20453;-70
2022/09/11 10:36:27;;;;;;;11.60;9.50;;;20.90;99.90;;;;;;6250294;23;20423;-70
2022/09/11 10:38:55;;;;;;;8.23;7.30;;;20.90;99.90;;;;;;6249169;23;20439;-71
2022/09/11 10:41:25;;;;;;;8.23;6.77;;;20.80;99.90;;;;;;6250371;23;20445;-70
2022/09/11 10:43:57;;;;;;;7.33;6.63;;;20.70;99.90;;;;;;6250889;23;20419;-70
2022/09/11 10:46:31;;;;;;;7.90;7.20;;;20.70;99.90;;;;;;6249193;23;20880;-70
2022/09/11 10:49:07;;;;;;;9.30;7.80;;;20.80;99.90;;;;;;6249170;23;20437;-70
2022/09/11 10:51:36;;;;;;;9.77;7.80;;;20.80;99.90;;;;;;6250750;23;20426;-69
2022/09/11 10:54:20;;;;;;;12.63;9.10;;;20.80;99.90;;;;;;6250665;23;20415;-70
2022/09/11 10:56:59;;;;;;;8.80;7.90;;;20.70;99.90;;;;;;6250598;23;20482;-70
2022/09/11 10:59:35;;;;;;;10.13;7.80;;;20.60;99.90;;;;;;6249668;23;20398;-70
2022/09/11 11:02:04;;;;;;;8.23;6.97;;;20.50;99.90;;;;;;6250163;23;20748;-70
2022/09/11 11:04:32;;;;;;;9.10;6.67;;;20.40;99.90;;;;;;6248909;23;20497;-70
2022/09/11 11:07:10;;;;;;;8.97;7.77;;;20.30;99.90;;;;;;6248184;23;20449;-70
2022/09/11 11:09:53;;;;;;;8.33;7.47;;;20.30;99.90;;;;;;6249479;23;20399;-70
2022/09/11 11:12:39;;;;;;;8.20;7.13;;;20.30;99.90;;;;;;6250457;23;20909;-70
2022/09/11 11:15:21;;;;;;;8.27;7.10;;;20.30;99.90;;;;;;6250141;23;20399;-70
2022/09/11 11:18:02;;;;;;;9.43;7.20;;;20.30;99.90;;;;;;6249944;23;20426;-70
2022/09/11 11:20:37;;;;;;;9.27;6.67;;;20.50;99.90;;;;;;6250811;23;20486;-70
2022/09/11 11:23:42;;;;;;;9.10;8.00;;;20.60;99.90;;;;;;6249997;23;20390;-70
2022/09/11 11:26:26;;;;;;;7.50;6.67;;;21.00;99.90;;;;;;6127354;23;20882;-70
2022/09/11 11:29:06;;;;;;;6.60;6.00;;;21.50;99.90;;;;;;6127802;23;20402;-69
2022/09/11 11:31:47;;;;;;;7.97;6.77;;;21.80;99.90;;;;;;6127814;23;20442;-69
2022/09/11 11:34:35;;;;;;;6.53;5.93;;;22.10;99.90;;;;;;6126164;23;20485;-70
2022/09/11 11:37:06;;;;;;;6.93;6.30;;;22.60;99.90;;;;;;6126711;23;20418;-70
2022/09/11 11:39:39;;;;;;;5.77;5.23;;;22.90;99.90;;;;;;6128644;23;20484;-70
2022/09/11 11:42:13;;;;;;;5.83;5.33;;;23.00;99.90;;;;;;6128046;23;20747;-70
2022/09/11 11:44:46;;;;;;;7.00;6.30;;;22.80;99.90;;;;;;6127393;23;20774;-70
2022/09/11 11:47:15;;;;;;;7.60;5.97;;;22.50;99.90;;;;;;6128261;23;20414;-70
2022/09/11 11:49:53;;;;;;;8.23;7.43;;;22.60;99.90;;;;;;6126933;23;20462;-71
2022/09/11 11:52:32;;;;;;;5.70;5.20;;;23.30;99.90;;;;;;6127459;23;20483;-71
2022/09/11 11:55:06;;;;;;;5.20;4.70;;;24.20;99.90;;;;;;6127239;23;20798;-71
2022/09/11 11:57:40;;;;;;;7.43;6.73;;;25.00;99.90;;;;;;6128640;23;20438;-70
2022/09/11 12:00:11;;;;;;;4.53;4.13;;;26.10;99.90;;;;;;6129105;23;20403;-70
2022/09/11 12:02:45;;;;;;;5.30;4.80;;;27.10;99.90;;;;;;6184920;23;20450;-70
2022/09/11 12:05:17;;;;;;;6.17;4.70;;;27.60;99.90;;;;;;6247946;23;20486;-70
2022/09/11 12:07:46;;;;;;;4.93;4.50;;;27.40;99.90;;;;;;6247263;23;20399;-70
2022/09/11 12:10:33;;;;;;;9.83;5.10;;;27.00;99.90;;;;;;6248767;23;20414;-71
2022/09/11 12:13:02;;;;;;;4.20;3.90;;;26.60;99.90;;;;;;6249346;23;20433;-71
2022/09/11 12:15:33;;;;;;;4.70;4.27;;;25.90;99.90;;;;;;6247810;23;20858;-70
2022/09/11 12:18:02;;;;;;;5.33;4.83;;;25.30;99.90;;;;;;6247613;23;20506;-70
2022/09/11 12:20:37;;;;;;;8.07;5.07;;;24.50;99.90;;;;;;6247397;23;20446;-70
2022/09/11 12:23:07;;;;;;;6.50;5.90;;;23.70;99.90;;;;;;6247872;23;20440;-70
2022/09/11 12:26:03;;;;;;;6.33;5.50;;;23.10;99.90;;;;;;6249786;23;20494;-70
2022/09/11 12:28:30;;;;;;;7.33;5.50;;;22.40;99.90;;;;;;6249880;23;20403;-70
2022/09/11 12:31:03;;;;;;;6.30;5.70;;;21.90;99.90;;;;;;6218328;23;20419;-70
2022/09/11 12:33:55;;;;;;;6.70;6.00;;;21.50;99.90;;;;;;6219559;23;20644;-70
2022/09/11 12:36:52;;;;;;;7.60;6.80;;;21.10;99.90;;;;;;6218334;23;20410;-70
2022/09/11 12:39:27;;;;;;;6.40;5.47;;;20.90;99.90;;;;;;6217909;23;20518;-70
2022/09/11 12:42:24;;;;;;;7.10;6.10;;;20.80;99.90;;;;;;6219013;23;20482;-70
2022/09/11 12:44:58;;;;;;;5.77;5.17;;;20.80;99.90;;;;;;6218760;23;20473;-70
2022/09/11 12:47:28;;;;;;;4.43;4.03;;;20.90;99.90;;;;;;6218587;23;20403;-70
2022/09/11 12:49:59;;;;;;;5.17;4.23;;;20.80;99.90;;;;;;6217778;23;20426;-70
2022/09/11 12:52:34;;;;;;;4.57;4.13;;;20.80;99.90;;;;;;6218305;23;20438;-70
2022/09/11 12:55:07;;;;;;;5.50;5.00;;;20.90;99.90;;;;;;6219072;23;20846;-70
2022/09/11 12:57:39;;;;;;;4.40;4.00;;;20.90;99.90;;;;;;6219363;23;20408;-70